createdAt,value
2023-05-05T00:00:59.012Z,7.88
2023-05-05T00:03:28.023Z,11.68
2023-05-05T00:05:57.423Z,9.63
2023-05-05T00:08:25.515Z,9.98
2023-05-05T00:10:54.492Z,11.07
2023-05-05T00:13:22.972Z,8.82
2023-05-05T00:15:57.286Z,11.95
2023-05-05T00:18:26.742Z,10.15
2023-05-05T00:20:54.746Z,11.48
2023-05-05T00:23:22.739Z,9.20
2023-05-05T00:25:51.071Z,10.68
2023-05-05T00:28:19.025Z,10.20
2023-05-05T00:30:47.050Z,8.35
2023-05-05T00:33:15.063Z,9.93
2023-05-05T00:35:44.581Z,11.73
2023-05-05T00:38:12.593Z,11.40
2023-05-05T00:40:42.881Z,9.75
2023-05-05T00:43:10.961Z,9.57
2023-05-05T00:45:42.871Z,9.40
2023-05-05T00:48:11.173Z,9.10
2023-05-05T00:50:39.978Z,9.95
2023-05-05T00:53:09.265Z,11.50
2023-05-05T00:55:37.608Z,9.85
2023-05-05T00:58:05.740Z,13.30
2023-05-05T01:00:34.472Z,9.32
2023-05-05T01:03:03.301Z,12.50
2023-05-05T01:05:38.806Z,9.10
2023-05-05T01:08:26.683Z,10.40
2023-05-05T01:10:58.417Z,9.15
2023-05-05T01:13:33.401Z,12.82
2023-05-05T01:16:07.676Z,14.35
2023-05-05T01:18:43.070Z,8.55
2023-05-05T01:21:16.057Z,8.50
2023-05-05T01:24:10.860Z,10.63
2023-05-05T01:27:01.457Z,9.13
2023-05-05T01:29:49.251Z,9.15
2023-05-05T01:32:23.098Z,11.32
2023-05-05T01:34:57.186Z,10.27
2023-05-05T01:37:30.223Z,12.18
2023-05-05T01:40:03.513Z,15.35
2023-05-05T01:42:33.508Z,12.93
2023-05-05T01:45:02.449Z,10.88
2023-05-05T01:47:33.014Z,11.55
2023-05-05T01:50:02.367Z,12.18
2023-05-05T01:52:31.159Z,10.48
2023-05-05T01:54:59.630Z,10.00
2023-05-05T01:57:31.380Z,8.35
2023-05-05T02:00:01.042Z,11.55
2023-05-05T02:02:31.560Z,9.02
2023-05-05T02:05:01.043Z,9.80
2023-05-05T02:07:30.047Z,10.43
2023-05-05T02:09:58.751Z,8.77
2023-05-05T02:12:27.604Z,8.85
2023-05-05T02:14:56.003Z,7.47
2023-05-05T02:17:25.590Z,7.95
2023-05-05T02:19:56.878Z,10.65
2023-05-05T02:22:24.853Z,10.90
2023-05-05T02:24:53.034Z,10.90
2023-05-05T02:27:24.866Z,8.82
2023-05-05T02:29:58.179Z,9.00
2023-05-05T02:35:02.774Z,8.63
2023-05-05T02:37:32.629Z,7.00
2023-05-05T02:40:05.251Z,9.13
2023-05-05T02:42:38.129Z,11.68
2023-05-05T02:45:13.016Z,7.82
2023-05-05T02:47:44.698Z,8.10
2023-05-05T02:50:14.476Z,7.90
2023-05-05T02:52:49.269Z,10.32
2023-05-05T02:55:20.189Z,9.68
2023-05-05T02:57:51.889Z,9.77
2023-05-05T03:00:24.881Z,7.15
2023-05-05T03:05:31.448Z,10.35
2023-05-05T03:08:05.283Z,7.43
2023-05-05T03:10:41.144Z,8.48
2023-05-05T03:13:11.573Z,7.65
2023-05-05T03:15:47.943Z,7.25
2023-05-05T03:20:56.625Z,7.40
2023-05-05T03:23:24.628Z,6.40
2023-05-05T03:25:57.744Z,8.65
2023-05-05T03:28:35.425Z,5.97
2023-05-05T03:31:09.654Z,8.18
2023-05-05T03:33:39.262Z,6.55
2023-05-05T03:36:08.912Z,7.75
2023-05-05T03:38:36.882Z,9.98
2023-05-05T03:41:05.268Z,7.70
2023-05-05T03:43:34.086Z,7.63
2023-05-05T03:46:02.151Z,6.80
2023-05-05T03:48:30.555Z,7.68
2023-05-05T03:50:58.900Z,9.90
2023-05-05T03:53:30.427Z,7.22
2023-05-05T03:55:58.596Z,8.75
2023-05-05T03:58:26.488Z,8.40
2023-05-05T04:00:54.446Z,8.85
2023-05-05T04:03:22.725Z,7.05
2023-05-05T04:05:51.117Z,8.77
2023-05-05T04:08:19.081Z,8.23
2023-05-05T04:10:48.424Z,6.65
2023-05-05T04:13:17.026Z,7.53
2023-05-05T04:15:47.918Z,9.25
2023-05-05T04:18:18.362Z,10.18
2023-05-05T04:20:47.204Z,6.55
2023-05-05T04:23:15.254Z,6.75
2023-05-05T04:25:44.315Z,6.90
2023-05-05T04:28:14.708Z,5.65
2023-05-05T04:30:43.011Z,7.45
2023-05-05T04:33:11.505Z,5.18
2023-05-05T04:35:39.452Z,6.00
2023-05-05T04:38:07.507Z,6.22
2023-05-05T04:40:39.745Z,6.10
2023-05-05T04:43:08.539Z,8.52
2023-05-05T04:45:38.390Z,6.88
2023-05-05T04:48:07.104Z,6.68
2023-05-05T04:50:35.091Z,5.10
2023-05-05T04:53:03.033Z,4.55
2023-05-05T04:55:31.140Z,6.70
2023-05-05T04:57:59.106Z,5.95
2023-05-05T05:00:27.456Z,4.65
2023-05-05T05:02:57.118Z,6.20
2023-05-05T05:05:25.218Z,7.28
2023-05-05T05:07:53.130Z,5.22
2023-05-05T05:10:21.319Z,6.50
2023-05-05T05:12:49.262Z,6.13
2023-05-05T05:15:17.322Z,8.73
2023-05-05T05:17:45.588Z,6.78
2023-05-05T05:20:15.131Z,6.97
2023-05-05T05:22:43.080Z,6.40
2023-05-05T05:25:16.107Z,9.00
2023-05-05T05:27:45.531Z,5.78
2023-05-05T05:30:17.345Z,7.70
2023-05-05T05:32:45.364Z,7.40
2023-05-05T05:35:14.677Z,10.02
2023-05-05T05:37:42.811Z,8.02
2023-05-05T05:40:11.338Z,4.40
2023-05-05T05:42:41.169Z,6.10
2023-05-05T05:45:10.768Z,6.85
2023-05-05T05:47:39.748Z,6.68
2023-05-05T05:50:09.217Z,5.65
2023-05-05T05:52:38.693Z,6.53
2023-05-05T05:55:09.020Z,6.32
2023-05-05T05:57:38.295Z,5.55
2023-05-05T06:00:09.830Z,4.55
2023-05-05T06:02:42.867Z,4.97
2023-05-05T06:05:14.705Z,4.78
2023-05-05T06:07:45.343Z,7.90
2023-05-05T06:10:26.694Z,4.80
2023-05-05T06:13:02.447Z,4.93
2023-05-05T06:15:32.542Z,6.05
2023-05-05T06:18:02.596Z,4.68
2023-05-05T06:20:30.533Z,3.95
2023-05-05T06:22:59.873Z,7.07
2023-05-05T06:25:29.906Z,10.43
2023-05-05T06:27:57.848Z,6.63
2023-05-05T06:30:26.604Z,4.93
2023-05-05T06:32:54.900Z,3.78
2023-05-05T06:35:23.076Z,5.65
2023-05-05T06:37:51.049Z,3.88
2023-05-05T06:40:20.964Z,4.80
2023-05-05T06:42:48.936Z,3.95
2023-05-05T06:45:23.079Z,4.18
2023-05-05T06:47:50.973Z,4.03
2023-05-05T06:50:19.053Z,6.15
2023-05-05T06:52:47.036Z,3.90
2023-05-05T06:55:14.912Z,4.20
2023-05-05T06:57:44.175Z,3.88
2023-05-05T07:00:14.918Z,7.05
2023-05-05T07:02:42.911Z,4.85
2023-05-05T07:05:11.013Z,4.05
2023-05-05T07:07:39.118Z,3.40
2023-05-05T07:10:09.644Z,6.22
2023-05-05T07:12:38.007Z,3.60
2023-05-05T07:15:23.306Z,3.65
2023-05-05T07:17:54.768Z,4.75
2023-05-05T07:20:22.736Z,4.55
2023-05-05T07:22:50.843Z,3.63
2023-05-05T07:25:18.754Z,6.45
2023-05-05T07:27:46.779Z,3.67
2023-05-05T07:30:18.400Z,4.63
2023-05-05T07:32:47.664Z,4.00
2023-05-05T07:35:15.858Z,3.70
2023-05-05T07:37:44.856Z,5.45
2023-05-05T07:40:13.451Z,4.50
2023-05-05T07:42:41.385Z,5.63
2023-05-05T07:45:09.855Z,6.50
2023-05-05T07:47:39.182Z,7.75
2023-05-05T07:50:08.476Z,3.90
2023-05-05T07:52:46.524Z,4.50
2023-05-05T07:55:19.658Z,7.78
2023-05-05T07:57:49.611Z,4.70
2023-05-05T08:00:19.618Z,4.57
2023-05-05T08:02:49.022Z,5.50
2023-05-05T08:05:17.394Z,5.93
2023-05-05T08:07:45.456Z,3.75
2023-05-05T08:10:13.542Z,6.05
2023-05-05T08:12:42.281Z,5.22
2023-05-05T08:15:10.987Z,4.72
2023-05-05T08:17:47.432Z,4.22
2023-05-05T08:20:17.037Z,6.65
2023-05-05T08:22:45.112Z,5.75
2023-05-05T08:25:13.847Z,4.75
2023-05-05T08:27:42.658Z,5.50
2023-05-05T08:30:11.847Z,6.22
2023-05-05T08:32:39.780Z,4.22
2023-05-05T08:35:08.695Z,3.88
2023-05-05T08:37:38.231Z,7.28
2023-05-05T08:40:06.983Z,5.40
2023-05-05T08:42:38.192Z,4.65
2023-05-05T08:45:08.516Z,4.18
2023-05-05T08:47:37.511Z,4.03
2023-05-05T08:50:06.691Z,4.50
2023-05-05T08:52:41.771Z,4.38
2023-05-05T08:55:15.688Z,4.28
2023-05-05T08:57:51.423Z,3.63
2023-05-05T09:00:20.869Z,5.78
2023-05-05T09:02:49.230Z,5.53
2023-05-05T09:05:19.239Z,4.25
2023-05-05T09:07:48.917Z,5.03
2023-05-05T09:10:16.886Z,5.20
2023-05-05T09:12:45.204Z,5.90
2023-05-05T09:15:15.106Z,4.20
2023-05-05T09:17:43.383Z,4.05
2023-05-05T09:20:13.377Z,5.30
2023-05-05T09:22:42.481Z,5.25
2023-05-05T09:25:13.375Z,4.78
2023-05-05T09:27:42.860Z,4.90
2023-05-05T09:30:12.165Z,6.97
2023-05-05T09:32:49.025Z,4.25
2023-05-05T09:35:18.000Z,5.88
2023-05-05T09:37:46.307Z,5.72
2023-05-05T09:40:16.773Z,6.38
2023-05-05T09:42:45.316Z,5.88
2023-05-05T09:45:27.891Z,5.25
2023-05-05T09:47:59.636Z,10.27
2023-05-05T09:50:30.988Z,5.07
2023-05-05T09:53:01.894Z,4.32
2023-05-05T09:55:32.097Z,5.97
2023-05-05T09:58:19.493Z,4.00
2023-05-05T10:00:48.098Z,4.00
2023-05-05T10:03:16.112Z,4.57
2023-05-05T10:05:51.644Z,6.32
2023-05-05T10:08:21.581Z,4.10
2023-05-05T10:10:54.015Z,4.13
2023-05-05T10:13:23.979Z,4.57
2023-05-05T10:15:53.165Z,4.20
2023-05-05T10:18:23.238Z,4.45
2023-05-05T10:20:58.450Z,5.15
2023-05-05T10:23:32.300Z,3.72
2023-05-05T10:26:04.390Z,3.80
2023-05-05T10:28:42.811Z,4.40
2023-05-05T10:31:25.732Z,5.65
2023-05-05T10:33:56.608Z,4.90
2023-05-05T10:36:26.365Z,4.47
2023-05-05T10:38:57.816Z,4.28
2023-05-05T10:41:27.538Z,5.03
2023-05-05T10:43:58.097Z,3.75
2023-05-05T10:46:27.847Z,6.72
2023-05-05T10:49:00.809Z,6.43
2023-05-05T10:51:40.668Z,4.75
2023-05-05T10:54:20.262Z,5.32
2023-05-05T10:56:51.197Z,4.32
2023-05-05T10:59:41.626Z,4.43
2023-05-05T11:02:23.522Z,3.10
2023-05-05T11:05:14.293Z,4.00
2023-05-05T11:07:43.063Z,6.45
2023-05-05T11:10:12.514Z,4.68
2023-05-05T11:13:22.080Z,3.90
2023-05-05T11:15:52.070Z,3.50
2023-05-05T11:18:37.195Z,4.20
2023-05-05T11:21:19.397Z,3.08
2023-05-05T11:23:49.399Z,3.97
2023-05-05T11:26:18.595Z,3.78
2023-05-05T11:29:02.228Z,4.50
2023-05-05T11:31:30.878Z,5.70
2023-05-05T11:34:31.119Z,4.30
2023-05-05T11:37:03.045Z,5.38
2023-05-05T11:39:39.375Z,3.40
2023-05-05T11:42:23.680Z,4.85
2023-05-05T11:44:53.753Z,4.97
2023-05-05T11:47:33.001Z,5.65
2023-05-05T11:50:21.661Z,5.55
2023-05-05T11:52:50.150Z,4.60
2023-05-05T11:55:23.041Z,3.35
2023-05-05T12:00:21.329Z,4.72
2023-05-05T12:02:57.375Z,5.00
2023-05-05T12:05:25.461Z,4.85
2023-05-05T12:07:59.399Z,4.35
2023-05-05T12:10:27.425Z,5.22
2023-05-05T12:12:55.814Z,4.55
2023-05-05T12:15:33.139Z,5.03
2023-05-05T12:18:03.093Z,5.90
2023-05-05T12:20:33.217Z,5.68
2023-05-05T12:23:02.632Z,4.57
2023-05-05T12:25:38.016Z,5.05
2023-05-05T12:28:07.123Z,4.97
2023-05-05T12:30:36.802Z,4.45
2023-05-05T12:33:06.218Z,4.93
2023-05-05T12:35:36.331Z,4.85
2023-05-05T12:38:04.583Z,6.32
2023-05-05T12:40:49.077Z,5.45
2023-05-05T12:43:27.524Z,7.40
2023-05-05T12:46:09.399Z,6.10
2023-05-05T12:48:38.976Z,6.30
2023-05-05T12:51:17.777Z,8.63
2023-05-05T12:53:46.557Z,12.65
2023-05-05T12:56:33.457Z,5.28
2023-05-05T12:59:02.926Z,5.85
2023-05-05T13:01:32.252Z,5.57
2023-05-05T13:04:11.617Z,9.38
2023-05-05T13:06:41.681Z,6.95
2023-05-05T13:09:11.011Z,6.43
2023-05-05T13:11:39.952Z,6.38
2023-05-05T13:14:08.997Z,5.80
2023-05-05T13:16:38.307Z,6.65
2023-05-05T13:19:06.229Z,7.60
2023-05-05T13:21:34.310Z,8.02
2023-05-05T13:24:20.757Z,7.97
2023-05-05T13:26:53.179Z,5.43
2023-05-05T13:29:21.145Z,10.32
2023-05-05T13:31:50.774Z,6.03
2023-05-05T13:34:18.713Z,6.60
2023-05-05T13:36:46.591Z,8.07
2023-05-05T13:39:14.521Z,8.52
2023-05-05T13:41:44.541Z,6.70
2023-05-05T13:44:13.570Z,5.50
2023-05-05T13:46:41.896Z,7.40
2023-05-05T13:49:11.219Z,12.18
2023-05-05T13:51:39.301Z,8.13
2023-05-05T13:54:08.066Z,9.65
2023-05-05T13:56:36.285Z,6.88
2023-05-05T13:59:04.339Z,6.95
2023-05-05T14:01:32.634Z,5.55
2023-05-05T14:04:03.608Z,6.05
2023-05-05T14:06:35.631Z,5.50
2023-05-05T14:09:05.895Z,5.00
2023-05-05T14:11:34.102Z,6.20
2023-05-05T14:14:02.036Z,5.30
2023-05-05T14:16:30.052Z,5.03
2023-05-05T14:18:58.026Z,6.03
2023-05-05T14:21:25.930Z,5.50
2023-05-05T14:23:55.188Z,6.32
2023-05-05T14:26:23.342Z,5.25
2023-05-05T14:28:51.223Z,6.55
2023-05-05T14:31:19.157Z,7.28
2023-05-05T14:33:47.070Z,8.93
2023-05-05T14:36:15.154Z,6.90
2023-05-05T14:38:43.511Z,6.38
2023-05-05T14:41:12.804Z,6.85
2023-05-05T14:43:40.922Z,6.10
2023-05-05T14:46:08.890Z,5.13
2023-05-05T14:48:37.597Z,10.70
2023-05-05T14:51:06.096Z,5.53
2023-05-05T14:53:35.051Z,6.63
2023-05-05T14:56:03.141Z,5.90
2023-05-05T14:58:32.397Z,6.57
2023-05-05T15:01:00.502Z,5.97
2023-05-05T15:03:28.621Z,6.30
2023-05-05T15:05:56.771Z,7.38
2023-05-05T15:08:24.726Z,9.15
2023-05-05T15:10:52.672Z,6.15
2023-05-05T15:13:20.661Z,6.20
2023-05-05T15:15:50.272Z,6.70
2023-05-05T15:18:18.477Z,11.55
2023-05-05T15:20:46.362Z,6.85
2023-05-05T15:23:14.268Z,6.80
2023-05-05T15:25:44.607Z,9.98
2023-05-05T15:28:12.518Z,9.07
2023-05-05T15:30:40.404Z,6.57
2023-05-05T15:33:09.667Z,7.18
2023-05-05T15:35:37.591Z,8.13
2023-05-05T15:38:05.603Z,8.57
2023-05-05T15:40:33.591Z,6.13
2023-05-05T15:43:01.648Z,8.55
2023-05-05T15:45:29.534Z,8.43
2023-05-05T15:47:57.975Z,8.25
2023-05-05T15:50:27.214Z,6.50
2023-05-05T15:52:56.780Z,7.47
2023-05-05T15:55:25.364Z,6.45
2023-05-05T15:57:53.322Z,7.95
2023-05-05T16:00:21.886Z,11.18
2023-05-05T16:02:49.891Z,8.40
2023-05-05T16:05:17.853Z,6.50
2023-05-05T16:07:47.094Z,6.43
2023-05-05T16:10:14.982Z,7.78
2023-05-05T16:12:42.911Z,8.23
2023-05-05T16:15:12.019Z,9.63
2023-05-05T16:17:39.969Z,9.30
2023-05-05T16:20:09.024Z,12.88
2023-05-05T16:22:36.927Z,8.88
2023-05-05T16:25:07.388Z,7.20
2023-05-05T16:27:35.554Z,12.23
2023-05-05T16:30:03.544Z,11.52
2023-05-05T16:32:31.582Z,9.70
2023-05-05T16:34:59.454Z,10.18
2023-05-05T16:37:27.409Z,12.55
2023-05-05T16:39:55.450Z,8.95
2023-05-05T16:42:24.772Z,9.45
2023-05-05T16:44:52.663Z,8.70
2023-05-05T16:47:20.706Z,8.65
2023-05-05T16:49:48.596Z,8.32
2023-05-05T16:52:16.506Z,10.70
2023-05-05T16:54:44.500Z,11.70
2023-05-05T16:57:12.805Z,8.70
2023-05-05T16:59:42.630Z,10.63
2023-05-05T17:02:10.502Z,11.27
2023-05-05T17:04:38.392Z,10.35
2023-05-05T17:07:06.314Z,9.07
2023-05-05T17:09:34.263Z,8.93
2023-05-05T17:12:04.047Z,9.40
2023-05-05T17:14:33.472Z,9.52
2023-05-05T17:17:02.925Z,10.35
2023-05-05T17:19:30.911Z,10.40
2023-05-05T17:21:58.781Z,6.40
2023-05-05T17:24:26.619Z,7.47
2023-05-05T17:26:55.017Z,9.73
2023-05-05T17:29:23.270Z,8.48
2023-05-05T17:31:51.666Z,7.57
2023-05-05T17:34:20.935Z,8.00
2023-05-05T17:36:48.872Z,6.85
2023-05-05T17:39:16.778Z,9.52
2023-05-05T17:41:44.685Z,12.38
2023-05-05T17:44:12.630Z,6.03
2023-05-05T17:46:40.476Z,10.82
2023-05-05T17:49:08.340Z,9.32
2023-05-05T17:51:37.570Z,7.85
2023-05-05T17:54:05.748Z,18.85
2023-05-05T17:56:33.895Z,10.38
2023-05-05T17:59:02.215Z,9.82
2023-05-05T18:01:30.091Z,9.68
2023-05-05T18:03:58.312Z,9.27
2023-05-05T18:06:26.782Z,12.73
2023-05-05T18:08:57.458Z,11.18
2023-05-05T18:11:27.587Z,9.07
2023-05-05T18:13:56.075Z,9.07
2023-05-05T18:16:24.091Z,16.00
2023-05-05T18:18:52.148Z,9.13
2023-05-05T18:21:20.002Z,8.80
2023-05-05T18:23:47.894Z,8.77
2023-05-05T18:26:17.388Z,10.10
2023-05-05T18:28:45.289Z,7.70
2023-05-05T18:31:13.248Z,8.23
2023-05-05T18:33:41.257Z,9.40
2023-05-05T18:36:09.328Z,10.45
2023-05-05T18:38:37.245Z,7.28
2023-05-05T18:41:05.356Z,6.97
2023-05-05T18:43:34.633Z,10.60
2023-05-05T18:46:02.601Z,10.00
2023-05-05T18:48:30.699Z,6.82
2023-05-05T18:51:03.260Z,8.52
2023-05-05T18:53:31.926Z,11.95
2023-05-05T18:56:00.189Z,8.18
2023-05-05T18:58:28.263Z,9.13
2023-05-05T19:00:58.138Z,13.85
2023-05-05T19:03:26.116Z,10.68
2023-05-05T19:05:54.120Z,5.78
2023-05-05T19:08:22.499Z,11.25
2023-05-05T19:10:50.541Z,10.13
2023-05-05T19:13:18.589Z,5.90
2023-05-05T19:15:46.508Z,9.35
2023-05-05T19:18:16.148Z,6.93
2023-05-05T19:20:44.028Z,6.88
2023-05-05T19:23:12.258Z,6.03
2023-05-05T19:25:40.495Z,8.23
2023-05-05T19:28:08.353Z,6.05
2023-05-05T19:30:36.322Z,10.20
2023-05-05T19:33:04.445Z,6.72
2023-05-05T19:35:33.680Z,4.78
2023-05-05T19:38:01.556Z,6.63
2023-05-05T19:40:29.633Z,6.13
2023-05-05T19:42:57.612Z,6.40
2023-05-05T19:45:25.468Z,6.88
2023-05-05T19:47:53.360Z,6.85
2023-05-05T19:50:21.581Z,6.20
2023-05-05T19:52:50.816Z,11.30
2023-05-05T19:55:19.642Z,5.25
2023-05-05T19:57:47.512Z,5.05
2023-05-05T20:00:16.072Z,4.85
2023-05-05T20:02:45.251Z,6.13
2023-05-05T20:05:13.918Z,3.40
2023-05-05T20:07:42.765Z,2.30
2023-05-05T20:10:14.036Z,5.03
2023-05-05T20:12:47.735Z,5.20
2023-05-05T20:15:18.635Z,3.83
2023-05-05T20:17:47.330Z,7.05
2023-05-05T20:20:18.746Z,4.85
2023-05-05T20:22:47.067Z,2.80
2023-05-05T20:25:16.897Z,5.45
2023-05-05T20:27:45.309Z,3.75
2023-05-05T20:30:15.170Z,4.10
2023-05-05T20:32:43.076Z,3.40
2023-05-05T20:35:15.016Z,3.40
2023-05-05T20:37:44.996Z,3.58
2023-05-05T20:40:14.155Z,4.88
2023-05-05T20:42:43.410Z,2.03
2023-05-05T20:45:12.355Z,6.10
2023-05-05T20:47:40.325Z,3.85
2023-05-05T20:50:09.515Z,4.00
2023-05-05T20:52:37.623Z,2.47
2023-05-05T20:55:06.094Z,5.80
2023-05-05T20:57:34.777Z,3.17
2023-05-05T21:00:04.896Z,3.40
2023-05-05T21:02:32.855Z,2.92
2023-05-05T21:05:02.899Z,4.40
2023-05-05T21:07:33.140Z,5.30
2023-05-05T21:10:01.191Z,4.97
2023-05-05T21:12:30.421Z,2.50
2023-05-05T21:14:59.573Z,2.55
2023-05-05T21:17:29.301Z,2.70
2023-05-05T21:19:57.435Z,2.22
2023-05-05T21:22:25.634Z,3.80
2023-05-05T21:24:53.528Z,2.55
2023-05-05T21:27:22.099Z,3.38
2023-05-05T21:29:51.988Z,3.10
2023-05-05T21:32:19.960Z,4.30
2023-05-05T21:34:49.188Z,4.28
2023-05-05T21:37:17.041Z,4.82
2023-05-05T21:39:44.896Z,4.82
2023-05-05T21:42:12.748Z,6.85
2023-05-05T21:44:40.653Z,3.72
2023-05-05T21:47:08.861Z,4.82
2023-05-05T21:49:36.790Z,5.15
2023-05-05T21:52:06.010Z,7.10
2023-05-05T21:54:33.931Z,3.63
2023-05-05T21:57:02.781Z,4.15
2023-05-05T21:59:30.713Z,4.20
2023-05-05T22:01:58.812Z,4.97
2023-05-05T22:04:26.885Z,4.72
2023-05-05T22:06:54.842Z,6.13
2023-05-05T22:09:24.058Z,5.55
2023-05-05T22:11:52.190Z,3.67
2023-05-05T22:14:20.102Z,4.75
2023-05-05T22:16:48.002Z,4.00
2023-05-05T22:19:16.016Z,4.60
2023-05-05T22:21:43.884Z,7.65
2023-05-05T22:24:11.744Z,6.53
2023-05-05T22:26:43.115Z,5.75
2023-05-05T22:29:11.411Z,5.80
2023-05-05T22:31:39.484Z,3.83
2023-05-05T22:34:07.760Z,3.97
2023-05-05T22:36:35.859Z,4.07
2023-05-05T22:39:03.948Z,4.82
2023-05-05T22:41:31.965Z,7.82
2023-05-05T22:44:01.257Z,4.32
2023-05-05T22:46:29.246Z,5.45
2023-05-05T22:48:57.147Z,6.28
2023-05-05T22:51:25.140Z,5.25
2023-05-05T22:53:53.000Z,4.20
2023-05-05T22:56:20.913Z,6.18
2023-05-05T22:58:48.870Z,4.95
2023-05-05T23:01:18.205Z,8.35
2023-05-05T23:03:46.079Z,4.72
2023-05-05T23:06:13.988Z,6.75
2023-05-05T23:08:42.618Z,6.22
2023-05-05T23:11:10.521Z,6.65
2023-05-05T23:13:38.423Z,7.78
2023-05-05T23:16:06.818Z,7.35
2023-05-05T23:18:37.399Z,4.25
2023-05-05T23:21:05.618Z,5.15
2023-05-05T23:23:33.526Z,6.10
2023-05-05T23:26:01.388Z,8.10
2023-05-05T23:28:29.278Z,5.43
2023-05-05T23:30:57.208Z,7.28
2023-05-05T23:33:25.106Z,4.60
2023-05-05T23:35:54.499Z,5.78
2023-05-05T23:38:22.362Z,7.20
2023-05-05T23:40:50.231Z,7.25
2023-05-05T23:43:18.140Z,7.55
2023-05-05T23:45:46.017Z,5.20
2023-05-05T23:48:14.517Z,4.43
2023-05-05T23:50:43.528Z,5.35
2023-05-05T23:53:12.746Z,7.25
2023-05-05T23:55:40.687Z,5.60
2023-05-05T23:58:08.616Z,4.13
